• Join FlightAware (Why Join?)
  • Login
  • US Flag 
08:52AM EDT


 

Airport Tracker/Info


-or-


 

Live Flight TrackerFlight Track Log ✈ SWA2966 ✈ 24-May-2013 ✈ KOAK - KONT

Flight Track Log - Related Links

Times and Time Zones

All times are in EDT time to prevent confusion due to time zone crossing. See the SWA2966 flight status page for this flight to view local times or setup timezone preferences in your user account.

Time Position Orientation Groundspeed Altitude Reporting Facility
EDT Latitude Longitude Course Direction KTS MPH feet Rate Location/Type
03:26PM 37.7333 -122.2667 260° West 186 214 1,500  Level Northern Cal TRACON
03:28PM 37.7167 -122.3833 260° West 252 290 4,000 2,040 Climbing Northern Cal TRACON
03:30PM 37.5961 -122.4025 187° South 268 308 9,400 2,580 Climbing Oakland Center
03:31PM 37.5108 -122.4031 180° South 308 354 11,600 2,460 Climbing Oakland Center
03:32PM 37.4397 -122.2900 128° Southeast 355 409 14,500 2,700 Climbing Oakland Center
03:33PM 37.3756 -122.1864 128° Southeast 377 434 17,200 2,160 Climbing Oakland Center
03:34PM 37.3094 -122.0792 128° Southeast 386 444 19,000 1,980 Climbing Oakland Center
03:35PM 37.2383 -121.9664 128° Southeast 408 470 21,300 2,040 Climbing Oakland Center
03:36PM 37.1681 -121.8542 128° Southeast 411 473 23,300 1,620 Climbing Oakland Center
03:38PM 37.0181 -121.6208 129° Southeast 435 501 26,400 1,500 Climbing Oakland Center
03:39PM 36.9256 -121.4744 128° Southeast 445 512 28,000 1,440 Climbing Oakland Center
03:40PM 36.8453 -121.3481 128° Southeast 462 532 29,400 1,380 Climbing Oakland Center
03:41PM 36.7764 -121.2389 128° Southeast 461 531 30,900 1,560 Climbing Oakland Center
03:42PM 36.6883 -121.0831 125° Southeast 457 526 32,600 1,380 Climbing Oakland Center
03:43PM 36.6264 -120.9408 118° Southeast 461 531 33,800 1,020 Climbing Oakland Center
03:44PM 36.5650 -120.7986 118° Southeast 465 535 34,800 540 Climbing Oakland Center
03:45PM 36.5014 -120.6569 119° Southeast 470 541 35,000 60 Climbing Oakland Center
03:46PM 36.4161 -120.5389 132° Southeast 463 533 35,000  Level Oakland Center
03:47PM 36.3319 -120.4164 130° Southeast 464 534 35,000  Level Oakland Center
03:48PM 36.2464 -120.2925 131° Southeast 471 542 35,000  Level Oakland Center
03:49PM 36.1606 -120.1706 131° Southeast 470 541 35,000  Level Oakland Center
03:50PM 36.0744 -120.0486 131° Southeast 468 539 35,000  Level Oakland Center
03:51PM 35.9722 -119.9039 131° Southeast 465 535 35,000  Level Oakland Center
03:52PM 35.8872 -119.7831 131° Southeast 464 534 35,000  Level Oakland Center
03:54PM 35.7986 -119.6611 132° Southeast 471 542 35,000  Level Los Angeles Center
03:54PM 35.7122 -119.5392 131° Southeast 474 545 35,000  Level Oakland Center
03:55PM 35.6247 -119.4189 132° Southeast 471 542 35,000  Level Oakland Center
03:57PM 35.5381 -119.2978 131° Southeast 470 541 35,000  Level Oakland Center
03:58PM 35.4517 -119.1789 132° Southeast 466 536 35,000 -120 Level Oakland Center
03:59PM 35.3514 -119.0367 131° Southeast 466 536 34,800 -600 Descending Los Angeles Center
04:00PM 35.2650 -118.9189 132° Southeast 466 536 33,800 -1,020 Descending Los Angeles Center
04:01PM 35.1789 -118.8003 132° Southeast 466 536 32,800 -960 Descending Los Angeles Center
04:02PM 35.0919 -118.6836 132° Southeast 465 535 31,900 -1,140 Descending Los Angeles Center
04:03PM 34.9886 -118.5453 132° Southeast 461 531 30,500 -1,800 Descending Los Angeles Center
04:04PM 34.9075 -118.4367 132° Southeast 456 525 28,300 -2,100 Descending Los Angeles Center
04:05PM 34.8261 -118.3292 133° Southeast 443 510 26,200 -2,040 Descending Los Angeles Center
04:06PM 34.7494 -118.2247 132° Southeast 427 491 24,100 -1,560 Descending Los Angeles Center
04:07PM 34.6628 -118.1072 132° Southeast 396 456 23,000 -1,080 Descending Los Angeles Center
04:08PM 34.6011 -117.9994 125° Southeast 401 461 21,900 -1,440 Descending Los Angeles Center
04:09PM 34.5483 -117.8844 119° Southeast 395 455 20,000 -1,560 Descending Los Angeles Center
04:10PM 34.4981 -117.7744 119° Southeast 381 438 18,700 -1,080 Descending Los Angeles Center
04:11PM 34.4469 -117.6628 119° Southeast 381 438 17,800 -1,320 Descending Los Angeles Center
04:12PM 34.3878 -117.5364 120° Southeast 365 420 16,000 -1,800 Descending Los Angeles Center
04:13PM 34.3461 -117.4500 120° Southeast 337 388 14,200 -1,800 Descending Los Angeles Center
04:14PM 34.2847 -117.3892 141° Southeast 316 364 12,300 -2,760 Descending Los Angeles Center
04:15PM 34.1883 -117.3806 176° South 279 321 8,500 -3,420 Descending Los Angeles Center
04:16PM 34.1153 -117.3917 187° South 267 307 5,300 -3,120 Descending Los Angeles Center
04:17PM 34.0833 -117.4000 192° South 258 297 4,300 -1,680 Descending Southern California TRACON
04:18PM 34.0500 -117.4500 231° Southwest 214 246 3,100 -1,020 Descending Southern California TRACON
04:19PM 34.0500 -117.5000 270° West 152 175 2,300 -780 Descending Southern California TRACON
04:20PM 34.0500 -117.5500 270° West 142 163 1,600 -660 Descending Southern California TRACON
04:21PM 34.0667 -117.6000 292° West 222 255 1,000 -600 Descending Southern California TRACON
04:23PM 34.0500 -117.6000 270° West  Level FlightAware Approximate
04:30PM 34.0560 -117.6012 270° West  Level Estimated
04:31PM 34.0500 -117.6000 270° West  Level FlightAware Approximate
04:32PM 34.0560 -117.6012 270° West  Level Estimated